sensor_id;sensor_type;location;lat;lon;timestamp;temperature;humidity
40059;SHT31;25763;49.972;8.568;2022-10-15T00:01:15;14.99;91.51
40059;SHT31;25763;49.972;8.568;2022-10-15T00:03:41;15.00;91.58
40059;SHT31;25763;49.972;8.568;2022-10-15T00:06:13;15.02;91.50
40059;SHT31;25763;49.972;8.568;2022-10-15T00:08:39;15.07;91.44
40059;SHT31;25763;49.972;8.568;2022-10-15T00:11:11;15.06;91.43
40059;SHT31;25763;49.972;8.568;2022-10-15T00:13:37;15.04;91.52
40059;SHT31;25763;49.972;8.568;2022-10-15T00:16:05;15.04;91.51
40059;SHT31;25763;49.972;8.568;2022-10-15T00:18:30;15.04;91.45
40059;SHT31;25763;49.972;8.568;2022-10-15T00:20:56;15.10;91.41
40059;SHT31;25763;49.972;8.568;2022-10-15T00:23:21;15.07;91.35
40059;SHT31;25763;49.972;8.568;2022-10-15T00:25:46;15.12;91.35
40059;SHT31;25763;49.972;8.568;2022-10-15T00:28:12;15.11;91.32
40059;SHT31;25763;49.972;8.568;2022-10-15T00:30:37;15.12;91.34
40059;SHT31;25763;49.972;8.568;2022-10-15T00:33:03;15.15;91.34
40059;SHT31;25763;49.972;8.568;2022-10-15T00:35:28;15.11;91.28
40059;SHT31;25763;49.972;8.568;2022-10-15T00:37:53;15.12;91.30
40059;SHT31;25763;49.972;8.568;2022-10-15T00:40:19;15.11;91.27
40059;SHT31;25763;49.972;8.568;2022-10-15T00:42:45;15.11;91.32
40059;SHT31;25763;49.972;8.568;2022-10-15T00:45:12;15.11;91.26
40059;SHT31;25763;49.972;8.568;2022-10-15T00:47:46;15.10;91.34
40059;SHT31;25763;49.972;8.568;2022-10-15T00:50:22;15.12;91.41
40059;SHT31;25763;49.972;8.568;2022-10-15T00:55:28;15.15;91.47
40059;SHT31;25763;49.972;8.568;2022-10-15T00:57:54;15.20;91.43
40059;SHT31;25763;49.972;8.568;2022-10-15T01:00:21;15.20;91.33
40059;SHT31;25763;49.972;8.568;2022-10-15T01:02:47;15.24;91.35
40059;SHT31;25763;49.972;8.568;2022-10-15T01:05:14;15.20;91.36
40059;SHT31;25763;49.972;8.568;2022-10-15T01:07:40;15.15;91.30
40059;SHT31;25763;49.972;8.568;2022-10-15T01:10:07;15.21;91.35
40059;SHT31;25763;49.972;8.568;2022-10-15T01:13:00;15.20;91.33
40059;SHT31;25763;49.972;8.568;2022-10-15T01:15:35;15.14;91.56
40059;SHT31;25763;49.972;8.568;2022-10-15T01:18:08;15.18;91.56
40059;SHT31;25763;49.972;8.568;2022-10-15T01:20:46;15.15;91.58
40059;SHT31;25763;49.972;8.568;2022-10-15T01:32:29;15.14;91.83
40059;SHT31;25763;49.972;8.568;2022-10-15T01:38:07;15.20;91.72
40059;SHT31;25763;49.972;8.568;2022-10-15T01:40:49;15.17;91.82
40059;SHT31;25763;49.972;8.568;2022-10-15T01:43:21;15.15;91.92
40059;SHT31;25763;49.972;8.568;2022-10-15T01:45:59;15.15;91.95
40059;SHT31;25763;49.972;8.568;2022-10-15T01:48:27;15.14;92.04
40059;SHT31;25763;49.972;8.568;2022-10-15T01:50:57;15.15;92.01
40059;SHT31;25763;49.972;8.568;2022-10-15T01:53:25;15.15;92.03
40059;SHT31;25763;49.972;8.568;2022-10-15T01:55:59;15.14;92.09
40059;SHT31;25763;49.972;8.568;2022-10-15T01:58:26;15.20;92.09
40059;SHT31;25763;49.972;8.568;2022-10-15T02:00:54;15.28;91.91
40059;SHT31;25763;49.972;8.568;2022-10-15T02:03:21;15.21;91.92
40059;SHT31;25763;49.972;8.568;2022-10-15T02:06:05;15.18;91.99
40059;SHT31;25763;49.972;8.568;2022-10-15T02:09:00;15.20;92.05
40059;SHT31;25763;49.972;8.568;2022-10-15T02:11:28;15.18;92.04
40059;SHT31;25763;49.972;8.568;2022-10-15T02:14:08;15.17;92.12
40059;SHT31;25763;49.972;8.568;2022-10-15T02:16:56;15.17;92.15
40059;SHT31;25763;49.972;8.568;2022-10-15T02:19:44;15.17;92.09
40059;SHT31;25763;49.972;8.568;2022-10-15T02:22:18;15.12;92.18
40059;SHT31;25763;49.972;8.568;2022-10-15T02:24:55;15.18;92.21
40059;SHT31;25763;49.972;8.568;2022-10-15T02:27:21;15.17;92.18
40059;SHT31;25763;49.972;8.568;2022-10-15T02:29:49;15.17;92.21
40059;SHT31;25763;49.972;8.568;2022-10-15T02:32:16;15.15;92.24
40059;SHT31;25763;49.972;8.568;2022-10-15T02:34:44;15.21;92.23
40059;SHT31;25763;49.972;8.568;2022-10-15T02:37:10;15.18;92.23
40059;SHT31;25763;49.972;8.568;2022-10-15T02:39:36;15.17;92.21
40059;SHT31;25763;49.972;8.568;2022-10-15T02:42:02;15.20;92.21
40059;SHT31;25763;49.972;8.568;2022-10-15T02:44:28;15.18;92.17
40059;SHT31;25763;49.972;8.568;2022-10-15T02:46:54;15.20;92.17
40059;SHT31;25763;49.972;8.568;2022-10-15T02:49:20;15.21;92.17
40059;SHT31;25763;49.972;8.568;2022-10-15T02:51:45;15.22;92.17
40059;SHT31;25763;49.972;8.568;2022-10-15T02:54:11;15.28;92.08
40059;SHT31;25763;49.972;8.568;2022-10-15T02:56:36;15.30;92.02
40059;SHT31;25763;49.972;8.568;2022-10-15T02:59:04;15.30;92.01
40059;SHT31;25763;49.972;8.568;2022-10-15T03:01:31;15.24;91.99
40059;SHT31;25763;49.972;8.568;2022-10-15T03:03:56;15.27;92.03
40059;SHT31;25763;49.972;8.568;2022-10-15T03:06:21;15.30;92.00
40059;SHT31;25763;49.972;8.568;2022-10-15T03:08:47;15.28;92.01
40059;SHT31;25763;49.972;8.568;2022-10-15T03:11:13;15.32;91.93
40059;SHT31;25763;49.972;8.568;2022-10-15T03:13:39;15.38;91.86
40059;SHT31;25763;49.972;8.568;2022-10-15T03:16:07;15.35;91.85
40059;SHT31;25763;49.972;8.568;2022-10-15T03:18:32;15.30;91.79
40059;SHT31;25763;49.972;8.568;2022-10-15T03:20:58;15.31;91.89
40059;SHT31;25763;49.972;8.568;2022-10-15T03:23:25;15.27;91.94
40059;SHT31;25763;49.972;8.568;2022-10-15T03:25:51;15.28;91.92
40059;SHT31;25763;49.972;8.568;2022-10-15T03:28:17;15.31;91.89
40059;SHT31;25763;49.972;8.568;2022-10-15T03:30:42;15.34;91.87
40059;SHT31;25763;49.972;8.568;2022-10-15T03:33:08;15.30;91.90
40059;SHT31;25763;49.972;8.568;2022-10-15T03:35:33;15.26;91.93
40059;SHT31;25763;49.972;8.568;2022-10-15T03:37:59;15.26;92.05
40059;SHT31;25763;49.972;8.568;2022-10-15T03:40:24;15.24;92.07
40059;SHT31;25763;49.972;8.568;2022-10-15T03:42:50;15.26;92.13
40059;SHT31;25763;49.972;8.568;2022-10-15T03:45:19;15.30;92.07
40059;SHT31;25763;49.972;8.568;2022-10-15T03:47:44;15.28;92.07
40059;SHT31;25763;49.972;8.568;2022-10-15T03:50:10;15.24;92.17
40059;SHT31;25763;49.972;8.568;2022-10-15T03:52:37;15.31;92.19
40059;SHT31;25763;49.972;8.568;2022-10-15T03:55:03;15.26;92.23
40059;SHT31;25763;49.972;8.568;2022-10-15T03:57:29;15.21;92.25
40059;SHT31;25763;49.972;8.568;2022-10-15T03:59:54;15.24;92.32
40059;SHT31;25763;49.972;8.568;2022-10-15T04:02:20;15.27;92.33
40059;SHT31;25763;49.972;8.568;2022-10-15T04:04:45;15.28;92.30
40059;SHT31;25763;49.972;8.568;2022-10-15T04:07:10;15.28;92.22
40059;SHT31;25763;49.972;8.568;2022-10-15T04:09:36;15.27;92.20
40059;SHT31;25763;49.972;8.568;2022-10-15T04:12:01;15.24;92.27
40059;SHT31;25763;49.972;8.568;2022-10-15T04:14:27;15.28;92.29
40059;SHT31;25763;49.972;8.568;2022-10-15T04:16:52;15.28;92.24
40059;SHT31;25763;49.972;8.568;2022-10-15T04:19:17;15.26;92.27
40059;SHT31;25763;49.972;8.568;2022-10-15T04:21:43;15.22;92.28
40059;SHT31;25763;49.972;8.568;2022-10-15T04:24:08;15.18;92.32
40059;SHT31;25763;49.972;8.568;2022-10-15T04:26:33;15.22;92.35
40059;SHT31;25763;49.972;8.568;2022-10-15T04:28:59;15.21;92.42
40059;SHT31;25763;49.972;8.568;2022-10-15T04:31:24;15.20;92.42
40059;SHT31;25763;49.972;8.568;2022-10-15T04:33:50;15.21;92.41
40059;SHT31;25763;49.972;8.568;2022-10-15T04:36:15;15.20;92.41
40059;SHT31;25763;49.972;8.568;2022-10-15T04:38:41;15.21;92.43
40059;SHT31;25763;49.972;8.568;2022-10-15T04:41:09;15.20;92.44
40059;SHT31;25763;49.972;8.568;2022-10-15T04:43:35;15.17;92.46
40059;SHT31;25763;49.972;8.568;2022-10-15T04:46:03;15.20;92.41
40059;SHT31;25763;49.972;8.568;2022-10-15T04:48:31;15.15;92.45
40059;SHT31;25763;49.972;8.568;2022-10-15T04:53:29;15.12;92.50
40059;SHT31;25763;49.972;8.568;2022-10-15T04:56:05;15.14;92.46
40059;SHT31;25763;49.972;8.568;2022-10-15T04:58:32;15.15;92.45
40059;SHT31;25763;49.972;8.568;2022-10-15T05:00:59;15.12;92.44
40059;SHT31;25763;49.972;8.568;2022-10-15T05:03:25;15.10;92.39
40059;SHT31;25763;49.972;8.568;2022-10-15T05:05:51;15.10;92.43
40059;SHT31;25763;49.972;8.568;2022-10-15T05:08:16;15.08;92.46
40059;SHT31;25763;49.972;8.568;2022-10-15T05:10:41;15.10;92.39
40059;SHT31;25763;49.972;8.568;2022-10-15T05:13:07;15.08;92.39
40059;SHT31;25763;49.972;8.568;2022-10-15T05:15:32;15.10;92.37
40059;SHT31;25763;49.972;8.568;2022-10-15T05:17:57;15.08;92.32
40059;SHT31;25763;49.972;8.568;2022-10-15T05:20:23;15.08;92.30
40059;SHT31;25763;49.972;8.568;2022-10-15T05:22:48;15.07;92.29
40059;SHT31;25763;49.972;8.568;2022-10-15T05:25:13;15.07;92.24
40059;SHT31;25763;49.972;8.568;2022-10-15T05:27:39;15.10;92.16
40059;SHT31;25763;49.972;8.568;2022-10-15T05:30:05;15.08;92.15
40059;SHT31;25763;49.972;8.568;2022-10-15T05:32:30;15.11;92.10
40059;SHT31;25763;49.972;8.568;2022-10-15T05:34:56;15.07;92.04
40059;SHT31;25763;49.972;8.568;2022-10-15T05:37:21;15.06;92.05
40059;SHT31;25763;49.972;8.568;2022-10-15T05:39:46;15.08;92.02
40059;SHT31;25763;49.972;8.568;2022-10-15T05:42:12;15.12;92.01
40059;SHT31;25763;49.972;8.568;2022-10-15T05:44:37;15.10;91.93
40059;SHT31;25763;49.972;8.568;2022-10-15T05:47:02;15.03;91.91
40059;SHT31;25763;49.972;8.568;2022-10-15T05:49:28;15.00;91.98
40059;SHT31;25763;49.972;8.568;2022-10-15T05:51:53;15.00;92.07
40059;SHT31;25763;49.972;8.568;2022-10-15T05:54:18;14.97;92.11
40059;SHT31;25763;49.972;8.568;2022-10-15T05:56:44;14.94;92.12
40059;SHT31;25763;49.972;8.568;2022-10-15T05:59:09;14.93;92.18
40059;SHT31;25763;49.972;8.568;2022-10-15T06:01:34;14.96;92.18
40059;SHT31;25763;49.972;8.568;2022-10-15T06:04:01;14.96;92.20
40059;SHT31;25763;49.972;8.568;2022-10-15T06:06:27;14.96;92.19
40059;SHT31;25763;49.972;8.568;2022-10-15T06:08:53;14.94;92.19
40059;SHT31;25763;49.972;8.568;2022-10-15T06:11:19;14.96;92.19
40059;SHT31;25763;49.972;8.568;2022-10-15T06:13:45;14.90;92.19
40059;SHT31;25763;49.972;8.568;2022-10-15T06:16:11;14.90;92.26
40059;SHT31;25763;49.972;8.568;2022-10-15T06:18:37;14.92;92.25
40059;SHT31;25763;49.972;8.568;2022-10-15T06:21:04;14.90;92.28
40059;SHT31;25763;49.972;8.568;2022-10-15T06:23:29;14.92;92.28
40059;SHT31;25763;49.972;8.568;2022-10-15T06:25:55;14.96;92.26
40059;SHT31;25763;49.972;8.568;2022-10-15T06:28:20;14.94;92.19
40059;SHT31;25763;49.972;8.568;2022-10-15T06:30:45;14.97;92.19
40059;SHT31;25763;49.972;8.568;2022-10-15T06:33:11;15.06;92.10
40059;SHT31;25763;49.972;8.568;2022-10-15T06:35:36;15.12;91.99
40059;SHT31;25763;49.972;8.568;2022-10-15T06:38:03;15.14;91.88
40059;SHT31;25763;49.972;8.568;2022-10-15T06:40:29;15.15;91.82
40059;SHT31;25763;49.972;8.568;2022-10-15T06:43:02;15.17;91.69
40059;SHT31;25763;49.972;8.568;2022-10-15T06:45:28;15.18;91.64
40059;SHT31;25763;49.972;8.568;2022-10-15T06:47:53;15.22;91.64
40059;SHT31;25763;49.972;8.568;2022-10-15T06:50:18;15.21;91.61
40059;SHT31;25763;49.972;8.568;2022-10-15T06:52:44;15.26;91.47
40059;SHT31;25763;49.972;8.568;2022-10-15T06:55:09;15.30;91.41
40059;SHT31;25763;49.972;8.568;2022-10-15T06:57:34;15.31;91.24
40059;SHT31;25763;49.972;8.568;2022-10-15T07:00:00;15.28;91.32
40059;SHT31;25763;49.972;8.568;2022-10-15T07:02:25;15.31;91.25
40059;SHT31;25763;49.972;8.568;2022-10-15T07:04:50;15.27;91.27
40059;SHT31;25763;49.972;8.568;2022-10-15T07:07:16;15.28;91.28
40059;SHT31;25763;49.972;8.568;2022-10-15T07:09:41;15.30;91.28
40059;SHT31;25763;49.972;8.568;2022-10-15T07:12:06;15.28;91.25
40059;SHT31;25763;49.972;8.568;2022-10-15T07:14:32;15.28;91.22
40059;SHT31;25763;49.972;8.568;2022-10-15T07:16:58;15.27;91.21
40059;SHT31;25763;49.972;8.568;2022-10-15T07:19:23;15.30;91.34
40059;SHT31;25763;49.972;8.568;2022-10-15T07:21:49;15.39;91.30
40059;SHT31;25763;49.972;8.568;2022-10-15T07:24:15;15.35;91.28
40059;SHT31;25763;49.972;8.568;2022-10-15T07:26:40;15.39;91.19
40059;SHT31;25763;49.972;8.568;2022-10-15T07:29:06;15.48;91.12
40059;SHT31;25763;49.972;8.568;2022-10-15T07:31:31;15.56;91.06
40059;SHT31;25763;49.972;8.568;2022-10-15T07:33:57;15.55;90.95
40059;SHT31;25763;49.972;8.568;2022-10-15T07:36:24;15.62;90.88
40059;SHT31;25763;49.972;8.568;2022-10-15T07:38:50;15.66;90.80
40059;SHT31;25763;49.972;8.568;2022-10-15T07:41:15;15.71;90.77
40059;SHT31;25763;49.972;8.568;2022-10-15T07:43:41;15.71;90.66
40059;SHT31;25763;49.972;8.568;2022-10-15T07:46:07;15.76;90.61
40059;SHT31;25763;49.972;8.568;2022-10-15T07:48:32;15.81;90.67
40059;SHT31;25763;49.972;8.568;2022-10-15T07:51:00;15.83;90.55
40059;SHT31;25763;49.972;8.568;2022-10-15T07:53:26;15.84;90.51
40059;SHT31;25763;49.972;8.568;2022-10-15T07:55:52;15.86;90.59
40059;SHT31;25763;49.972;8.568;2022-10-15T07:58:18;15.98;90.65
40059;SHT31;25763;49.972;8.568;2022-10-15T08:00:43;16.11;90.62
40059;SHT31;25763;49.972;8.568;2022-10-15T08:03:09;16.28;90.51
40059;SHT31;25763;49.972;8.568;2022-10-15T08:05:34;16.42;90.31
40059;SHT31;25763;49.972;8.568;2022-10-15T08:08:00;16.49;90.14
40059;SHT31;25763;49.972;8.568;2022-10-15T08:10:26;16.49;89.95
40059;SHT31;25763;49.972;8.568;2022-10-15T08:12:51;16.52;89.73
40059;SHT31;25763;49.972;8.568;2022-10-15T08:15:17;16.52;89.68
40059;SHT31;25763;49.972;8.568;2022-10-15T08:17:42;16.50;89.63
40059;SHT31;25763;49.972;8.568;2022-10-15T08:20:08;16.45;89.66
40059;SHT31;25763;49.972;8.568;2022-10-15T08:22:34;16.45;89.75
40059;SHT31;25763;49.972;8.568;2022-10-15T08:24:59;16.61;89.90
40059;SHT31;25763;49.972;8.568;2022-10-15T08:27:25;16.63;89.84
40059;SHT31;25763;49.972;8.568;2022-10-15T08:29:51;16.70;89.74
40059;SHT31;25763;49.972;8.568;2022-10-15T08:32:16;16.64;89.67
40059;SHT31;25763;49.972;8.568;2022-10-15T08:34:42;16.67;89.60
40059;SHT31;25763;49.972;8.568;2022-10-15T08:37:07;16.81;89.65
40059;SHT31;25763;49.972;8.568;2022-10-15T08:39:34;16.95;89.73
40059;SHT31;25763;49.972;8.568;2022-10-15T08:42:01;16.87;89.21
40059;SHT31;25763;49.972;8.568;2022-10-15T08:44:29;16.98;89.31
40059;SHT31;25763;49.972;8.568;2022-10-15T08:47:03;17.09;89.04
40059;SHT31;25763;49.972;8.568;2022-10-15T08:49:49;17.20;88.79
40059;SHT31;25763;49.972;8.568;2022-10-15T08:54:58;16.98;88.75
40059;SHT31;25763;49.972;8.568;2022-10-15T08:57:36;17.05;88.71
40059;SHT31;25763;49.972;8.568;2022-10-15T09:00:11;17.05;88.60
40059;SHT31;25763;49.972;8.568;2022-10-15T09:02:49;17.06;88.58
40059;SHT31;25763;49.972;8.568;2022-10-15T09:05:37;17.01;88.40
40059;SHT31;25763;49.972;8.568;2022-10-15T09:10:42;17.11;88.42
40059;SHT31;25763;49.972;8.568;2022-10-15T09:13:25;17.32;88.41
40059;SHT31;25763;49.972;8.568;2022-10-15T09:18:41;17.49;88.07
40059;SHT31;25763;49.972;8.568;2022-10-15T09:21:08;17.64;87.80
40059;SHT31;25763;49.972;8.568;2022-10-15T09:23:36;17.57;87.32
40059;SHT31;25763;49.972;8.568;2022-10-15T09:26:45;17.41;86.98
40059;SHT31;25763;49.972;8.568;2022-10-15T09:29:13;17.43;87.08
40059;SHT31;25763;49.972;8.568;2022-10-15T09:31:45;17.44;87.08
40059;SHT31;25763;49.972;8.568;2022-10-15T09:34:28;17.57;87.33
40059;SHT31;25763;49.972;8.568;2022-10-15T09:37:04;17.67;87.26
40059;SHT31;25763;49.972;8.568;2022-10-15T09:42:44;17.60;86.86
40059;SHT31;25763;49.972;8.568;2022-10-15T09:45:12;17.67;86.94
40059;SHT31;25763;49.972;8.568;2022-10-15T09:47:42;17.75;86.68
40059;SHT31;25763;49.972;8.568;2022-10-15T09:50:10;17.68;86.22
40059;SHT31;25763;49.972;8.568;2022-10-15T09:55:58;17.84;86.24
40059;SHT31;25763;49.972;8.568;2022-10-15T09:58:29;17.86;85.61
40059;SHT31;25763;49.972;8.568;2022-10-15T10:01:02;17.85;85.83
40059;SHT31;25763;49.972;8.568;2022-10-15T10:03:29;18.00;86.06
40059;SHT31;25763;49.972;8.568;2022-10-15T10:06:12;18.00;85.49
40059;SHT31;25763;49.972;8.568;2022-10-15T10:08:45;17.79;85.03
40059;SHT31;25763;49.972;8.568;2022-10-15T10:11:11;17.67;85.31
40059;SHT31;25763;49.972;8.568;2022-10-15T10:13:44;17.60;85.40
40059;SHT31;25763;49.972;8.568;2022-10-15T10:16:12;17.65;85.65
40059;SHT31;25763;49.972;8.568;2022-10-15T10:18:38;17.65;85.73
40059;SHT31;25763;49.972;8.568;2022-10-15T10:21:06;17.57;85.95
40059;SHT31;25763;49.972;8.568;2022-10-15T10:23:37;17.58;86.08
40059;SHT31;25763;49.972;8.568;2022-10-15T10:26:05;17.67;86.17
40059;SHT31;25763;49.972;8.568;2022-10-15T10:28:53;17.58;86.66
40059;SHT31;25763;49.972;8.568;2022-10-15T10:31:27;17.64;86.74
40059;SHT31;25763;49.972;8.568;2022-10-15T10:33:54;17.71;86.68
40059;SHT31;25763;49.972;8.568;2022-10-15T10:36:31;17.73;86.41
40059;SHT31;25763;49.972;8.568;2022-10-15T10:41:58;17.91;85.98
40059;SHT31;25763;49.972;8.568;2022-10-15T10:49:40;17.85;85.49
40059;SHT31;25763;49.972;8.568;2022-10-15T10:52:17;17.71;85.98
40059;SHT31;25763;49.972;8.568;2022-10-15T10:54:43;17.61;86.01
40059;SHT31;25763;49.972;8.568;2022-10-15T10:57:10;17.54;86.36
40059;SHT31;25763;49.972;8.568;2022-10-15T10:59:49;17.53;86.63
40059;SHT31;25763;49.972;8.568;2022-10-15T11:02:16;17.55;86.74
40059;SHT31;25763;49.972;8.568;2022-10-15T11:04:42;17.39;87.25
40059;SHT31;25763;49.972;8.568;2022-10-15T11:18:28;17.92;87.17
40059;SHT31;25763;49.972;8.568;2022-10-15T11:21:25;18.18;86.36
40059;SHT31;25763;49.972;8.568;2022-10-15T11:27:07;18.28;85.23
40059;SHT31;25763;49.972;8.568;2022-10-15T11:29:52;18.24;85.59
40059;SHT31;25763;49.972;8.568;2022-10-15T11:32:52;18.21;85.56
40059;SHT31;25763;49.972;8.568;2022-10-15T11:46:08;17.77;86.78
40059;SHT31;25763;49.972;8.568;2022-10-15T11:49:02;17.77;86.87
40059;SHT31;25763;49.972;8.568;2022-10-15T11:51:33;17.71;86.91
40059;SHT31;25763;49.972;8.568;2022-10-15T11:54:13;17.71;87.14
40059;SHT31;25763;49.972;8.568;2022-10-15T11:56:48;17.70;86.83
40059;SHT31;25763;49.972;8.568;2022-10-15T12:01:47;17.64;86.83
40059;SHT31;25763;49.972;8.568;2022-10-15T12:04:31;17.67;86.89
40059;SHT31;25763;49.972;8.568;2022-10-15T12:07:00;17.64;86.82
40059;SHT31;25763;49.972;8.568;2022-10-15T12:09:34;17.68;86.88
40059;SHT31;25763;49.972;8.568;2022-10-15T12:12:25;17.68;86.90
40059;SHT31;25763;49.972;8.568;2022-10-15T12:17:57;17.70;87.00
40059;SHT31;25763;49.972;8.568;2022-10-15T12:20:26;17.67;87.08
40059;SHT31;25763;49.972;8.568;2022-10-15T12:22:56;17.68;87.12
40059;SHT31;25763;49.972;8.568;2022-10-15T12:28:04;17.60;87.35
40059;SHT31;25763;49.972;8.568;2022-10-15T12:30:31;17.54;87.46
40059;SHT31;25763;49.972;8.568;2022-10-15T12:33:03;17.53;87.59
40059;SHT31;25763;49.972;8.568;2022-10-15T12:35:53;17.54;87.51
40059;SHT31;25763;49.972;8.568;2022-10-15T12:38:24;17.58;87.59
40059;SHT31;25763;49.972;8.568;2022-10-15T12:43:27;17.58;87.55
40059;SHT31;25763;49.972;8.568;2022-10-15T12:45:56;17.61;87.49
40059;SHT31;25763;49.972;8.568;2022-10-15T12:51:32;17.65;87.40
40059;SHT31;25763;49.972;8.568;2022-10-15T12:53:59;17.67;87.27
40059;SHT31;25763;49.972;8.568;2022-10-15T12:56:39;17.67;87.37
40059;SHT31;25763;49.972;8.568;2022-10-15T12:59:29;17.64;87.30
40059;SHT31;25763;49.972;8.568;2022-10-15T13:01:57;17.64;87.25
40059;SHT31;25763;49.972;8.568;2022-10-15T13:04:22;17.61;87.36
40059;SHT31;25763;49.972;8.568;2022-10-15T13:07:03;17.68;87.36
40059;SHT31;25763;49.972;8.568;2022-10-15T13:09:29;17.68;87.31
40059;SHT31;25763;49.972;8.568;2022-10-15T13:11:56;17.75;87.23
40059;SHT31;25763;49.972;8.568;2022-10-15T13:14:29;17.75;87.12
40059;SHT31;25763;49.972;8.568;2022-10-15T13:16:55;17.78;87.13
40059;SHT31;25763;49.972;8.568;2022-10-15T13:19:26;17.75;86.95
40059;SHT31;25763;49.972;8.568;2022-10-15T13:21:54;17.79;87.12
40059;SHT31;25763;49.972;8.568;2022-10-15T13:24:23;17.86;87.07
40059;SHT31;25763;49.972;8.568;2022-10-15T13:26:49;17.85;86.90
40059;SHT31;25763;49.972;8.568;2022-10-15T13:29:17;17.92;86.87
40059;SHT31;25763;49.972;8.568;2022-10-15T13:31:43;17.91;86.72
40059;SHT31;25763;49.972;8.568;2022-10-15T13:34:25;17.93;86.57
40059;SHT31;25763;49.972;8.568;2022-10-15T13:36:51;17.92;86.53
40059;SHT31;25763;49.972;8.568;2022-10-15T13:39:34;17.91;86.37
40059;SHT31;25763;49.972;8.568;2022-10-15T13:42:21;17.88;86.43
40059;SHT31;25763;49.972;8.568;2022-10-15T13:45:14;17.89;86.51
40059;SHT31;25763;49.972;8.568;2022-10-15T13:47:41;17.89;86.41
40059;SHT31;25763;49.972;8.568;2022-10-15T13:52:55;17.91;86.38
40059;SHT31;25763;49.972;8.568;2022-10-15T13:55:27;17.95;86.29
40059;SHT31;25763;49.972;8.568;2022-10-15T13:57:58;17.88;84.89
40059;SHT31;25763;49.972;8.568;2022-10-15T14:00:27;17.85;83.70
40059;SHT31;25763;49.972;8.568;2022-10-15T14:03:13;17.89;83.76
40059;SHT31;25763;49.972;8.568;2022-10-15T14:05:41;17.92;83.94
40059;SHT31;25763;49.972;8.568;2022-10-15T14:08:24;17.93;83.27
40059;SHT31;25763;49.972;8.568;2022-10-15T14:10:52;17.95;83.45
40059;SHT31;25763;49.972;8.568;2022-10-15T14:13:18;17.95;83.71
40059;SHT31;25763;49.972;8.568;2022-10-15T14:15:50;17.98;83.86
40059;SHT31;25763;49.972;8.568;2022-10-15T14:18:27;17.99;84.59
40059;SHT31;25763;49.972;8.568;2022-10-15T14:20:53;17.93;84.88
40059;SHT31;25763;49.972;8.568;2022-10-15T14:23:21;17.98;85.03
40059;SHT31;25763;49.972;8.568;2022-10-15T14:26:09;17.92;85.06
40059;SHT31;25763;49.972;8.568;2022-10-15T14:28:36;17.96;85.16
40059;SHT31;25763;49.972;8.568;2022-10-15T14:31:02;17.96;85.13
40059;SHT31;25763;49.972;8.568;2022-10-15T14:38:34;17.93;83.65
40059;SHT31;25763;49.972;8.568;2022-10-15T14:41:03;17.96;83.79
40059;SHT31;25763;49.972;8.568;2022-10-15T14:43:33;18.05;83.72
40059;SHT31;25763;49.972;8.568;2022-10-15T14:45:59;18.14;83.96
40059;SHT31;25763;49.972;8.568;2022-10-15T14:48:36;18.10;84.30
40059;SHT31;25763;49.972;8.568;2022-10-15T14:51:06;17.99;84.62
40059;SHT31;25763;49.972;8.568;2022-10-15T14:53:35;17.93;84.95
40059;SHT31;25763;49.972;8.568;2022-10-15T14:56:15;17.85;85.16
40059;SHT31;25763;49.972;8.568;2022-10-15T14:58:49;17.82;85.32
40059;SHT31;25763;49.972;8.568;2022-10-15T15:01:17;17.79;85.47
40059;SHT31;25763;49.972;8.568;2022-10-15T15:03:54;17.77;85.52
40059;SHT31;25763;49.972;8.568;2022-10-15T15:06:21;17.79;85.64
40059;SHT31;25763;49.972;8.568;2022-10-15T15:08:46;17.79;85.62
40059;SHT31;25763;49.972;8.568;2022-10-15T15:11:16;17.77;85.74
40059;SHT31;25763;49.972;8.568;2022-10-15T15:13:43;17.81;85.84
40059;SHT31;25763;49.972;8.568;2022-10-15T15:16:11;17.75;85.85
40059;SHT31;25763;49.972;8.568;2022-10-15T15:18:36;17.74;85.98
40059;SHT31;25763;49.972;8.568;2022-10-15T15:21:04;17.75;86.09
40059;SHT31;25763;49.972;8.568;2022-10-15T15:23:30;17.77;86.01
40059;SHT31;25763;49.972;8.568;2022-10-15T15:25:56;17.78;86.18
40059;SHT31;25763;49.972;8.568;2022-10-15T15:28:24;17.78;86.10
40059;SHT31;25763;49.972;8.568;2022-10-15T15:31:05;17.84;86.14
40059;SHT31;25763;49.972;8.568;2022-10-15T15:33:31;17.85;86.12
40059;SHT31;25763;49.972;8.568;2022-10-15T15:36:03;17.84;86.15
40059;SHT31;25763;49.972;8.568;2022-10-15T15:38:29;17.81;86.10
40059;SHT31;25763;49.972;8.568;2022-10-15T15:41:03;17.81;86.11
40059;SHT31;25763;49.972;8.568;2022-10-15T15:43:34;17.81;86.06
40059;SHT31;25763;49.972;8.568;2022-10-15T15:46:00;17.79;86.08
40059;SHT31;25763;49.972;8.568;2022-10-15T15:48:26;17.74;86.06
40059;SHT31;25763;49.972;8.568;2022-10-15T15:50:51;17.71;86.06
40059;SHT31;25763;49.972;8.568;2022-10-15T15:53:17;17.73;86.08
40059;SHT31;25763;49.972;8.568;2022-10-15T15:55:42;17.67;86.20
40059;SHT31;25763;49.972;8.568;2022-10-15T15:58:07;17.70;86.10
40059;SHT31;25763;49.972;8.568;2022-10-15T16:00:33;17.65;86.26
40059;SHT31;25763;49.972;8.568;2022-10-15T16:02:58;17.60;86.26
40059;SHT31;25763;49.972;8.568;2022-10-15T16:05:24;17.57;86.38
40059;SHT31;25763;49.972;8.568;2022-10-15T16:07:49;17.58;86.31
40059;SHT31;25763;49.972;8.568;2022-10-15T16:10:14;17.57;86.40
40059;SHT31;25763;49.972;8.568;2022-10-15T16:12:41;17.55;86.42
40059;SHT31;25763;49.972;8.568;2022-10-15T16:15:08;17.54;86.59
40059;SHT31;25763;49.972;8.568;2022-10-15T16:17:35;17.54;86.56
40059;SHT31;25763;49.972;8.568;2022-10-15T16:20:00;17.47;86.54
40059;SHT31;25763;49.972;8.568;2022-10-15T16:22:26;17.44;86.73
40059;SHT31;25763;49.972;8.568;2022-10-15T16:24:51;17.44;86.67
40059;SHT31;25763;49.972;8.568;2022-10-15T16:27:17;17.44;86.64
40059;SHT31;25763;49.972;8.568;2022-10-15T16:29:43;17.40;86.69
40059;SHT31;25763;49.972;8.568;2022-10-15T16:32:08;17.36;86.81
40059;SHT31;25763;49.972;8.568;2022-10-15T16:34:33;17.37;86.84
40059;SHT31;25763;49.972;8.568;2022-10-15T16:36:59;17.33;86.89
40059;SHT31;25763;49.972;8.568;2022-10-15T16:39:24;17.33;86.94
40059;SHT31;25763;49.972;8.568;2022-10-15T16:41:49;17.30;87.02
40059;SHT31;25763;49.972;8.568;2022-10-15T16:44:15;17.29;86.97
40059;SHT31;25763;49.972;8.568;2022-10-15T16:46:40;17.25;87.10
40059;SHT31;25763;49.972;8.568;2022-10-15T16:49:06;17.25;87.12
40059;SHT31;25763;49.972;8.568;2022-10-15T16:51:31;17.20;87.21
40059;SHT31;25763;49.972;8.568;2022-10-15T16:53:57;17.18;87.34
40059;SHT31;25763;49.972;8.568;2022-10-15T16:56:28;17.14;87.45
40059;SHT31;25763;49.972;8.568;2022-10-15T16:58:54;17.14;87.51
40059;SHT31;25763;49.972;8.568;2022-10-15T17:01:26;17.12;87.46
40059;SHT31;25763;49.972;8.568;2022-10-15T17:03:52;17.08;87.63
40059;SHT31;25763;49.972;8.568;2022-10-15T17:06:20;17.08;87.62
40059;SHT31;25763;49.972;8.568;2022-10-15T17:08:47;17.08;87.65